sensor_id;sensor_type;location;lat;lon;timestamp;P1;durP1;ratioP1;P2;durP2;ratioP2
13693;SDS011;6919;52.344;14.518;2022-09-09T00:00:25;9.47;;;4.83;;
13693;SDS011;6919;52.344;14.518;2022-09-09T00:02:58;6.50;;;4.63;;
13693;SDS011;6919;52.344;14.518;2022-09-09T00:05:38;7.00;;;4.43;;
13693;SDS011;6919;52.344;14.518;2022-09-09T00:08:24;5.13;;;4.33;;
13693;SDS011;6919;52.344;14.518;2022-09-09T00:11:11;5.10;;;4.60;;
13693;SDS011;6919;52.344;14.518;2022-09-09T00:13:56;13.27;;;5.77;;
13693;SDS011;6919;52.344;14.518;2022-09-09T00:16:31;13.63;;;5.80;;
13693;SDS011;6919;52.344;14.518;2022-09-09T00:19:06;7.27;;;5.80;;
13693;SDS011;6919;52.344;14.518;2022-09-09T00:21:49;8.10;;;5.27;;
13693;SDS011;6919;52.344;14.518;2022-09-09T00:24:34;7.90;;;6.27;;
13693;SDS011;6919;52.344;14.518;2022-09-09T00:27:13;8.20;;;6.30;;
13693;SDS011;6919;52.344;14.518;2022-09-09T00:29:56;5.47;;;4.97;;
13693;SDS011;6919;52.344;14.518;2022-09-09T00:32:40;8.50;;;5.20;;
13693;SDS011;6919;52.344;14.518;2022-09-09T00:35:14;14.63;;;5.43;;
13693;SDS011;6919;52.344;14.518;2022-09-09T00:37:50;9.13;;;5.30;;
13693;SDS011;6919;52.344;14.518;2022-09-09T00:40:25;6.23;;;5.37;;
13693;SDS011;6919;52.344;14.518;2022-09-09T00:43:15;7.13;;;5.37;;
13693;SDS011;6919;52.344;14.518;2022-09-09T00:49:20;6.10;;;5.47;;
13693;SDS011;6919;52.344;14.518;2022-09-09T00:52:08;7.10;;;5.60;;
13693;SDS011;6919;52.344;14.518;2022-09-09T00:54:52;7.07;;;5.60;;
13693;SDS011;6919;52.344;14.518;2022-09-09T00:57:33;8.77;;;5.53;;
13693;SDS011;6919;52.344;14.518;2022-09-09T01:00:18;7.00;;;5.73;;
13693;SDS011;6919;52.344;14.518;2022-09-09T01:02:56;7.33;;;5.17;;
13693;SDS011;6919;52.344;14.518;2022-09-09T01:05:54;5.90;;;4.90;;
13693;SDS011;6919;52.344;14.518;2022-09-09T01:11:37;5.90;;;5.30;;
13693;SDS011;6919;52.344;14.518;2022-09-09T01:14:29;7.77;;;5.50;;
13693;SDS011;6919;52.344;14.518;2022-09-09T01:17:11;7.23;;;4.87;;
13693;SDS011;6919;52.344;14.518;2022-09-09T01:19:49;6.70;;;5.53;;
13693;SDS011;6919;52.344;14.518;2022-09-09T01:22:33;5.40;;;4.90;;
13693;SDS011;6919;52.344;14.518;2022-09-09T01:28:32;5.77;;;5.13;;
13693;SDS011;6919;52.344;14.518;2022-09-09T01:31:04;11.00;;;5.60;;
13693;SDS011;6919;52.344;14.518;2022-09-09T01:33:36;6.30;;;5.70;;
13693;SDS011;6919;52.344;14.518;2022-09-09T01:36:06;5.93;;;5.20;;
13693;SDS011;6919;52.344;14.518;2022-09-09T01:38:41;5.80;;;5.30;;
13693;SDS011;6919;52.344;14.518;2022-09-09T01:41:11;5.93;;;5.27;;
13693;SDS011;6919;52.344;14.518;2022-09-09T01:43:39;5.63;;;4.93;;
13693;SDS011;6919;52.344;14.518;2022-09-09T01:46:07;7.37;;;4.80;;
13693;SDS011;6919;52.344;14.518;2022-09-09T01:48:38;6.00;;;5.50;;
13693;SDS011;6919;52.344;14.518;2022-09-09T01:51:08;5.70;;;5.10;;
13693;SDS011;6919;52.344;14.518;2022-09-09T01:53:37;6.50;;;5.90;;
13693;SDS011;6919;52.344;14.518;2022-09-09T01:56:14;6.60;;;5.87;;
13693;SDS011;6919;52.344;14.518;2022-09-09T01:59:03;6.90;;;5.53;;
13693;SDS011;6919;52.344;14.518;2022-09-09T02:01:55;10.30;;;6.30;;
13693;SDS011;6919;52.344;14.518;2022-09-09T02:04:38;6.53;;;5.93;;
13693;SDS011;6919;52.344;14.518;2022-09-09T02:07:19;7.90;;;6.20;;
13693;SDS011;6919;52.344;14.518;2022-09-09T02:10:02;6.70;;;5.73;;
13693;SDS011;6919;52.344;14.518;2022-09-09T02:12:41;6.70;;;5.97;;
13693;SDS011;6919;52.344;14.518;2022-09-09T02:15:16;6.23;;;5.67;;
13693;SDS011;6919;52.344;14.518;2022-09-09T02:17:53;8.57;;;6.03;;
13693;SDS011;6919;52.344;14.518;2022-09-09T02:20:26;5.83;;;5.10;;
13693;SDS011;6919;52.344;14.518;2022-09-09T02:23:00;6.60;;;5.60;;
13693;SDS011;6919;52.344;14.518;2022-09-09T02:25:29;6.23;;;5.63;;
13693;SDS011;6919;52.344;14.518;2022-09-09T02:27:59;6.53;;;5.87;;
13693;SDS011;6919;52.344;14.518;2022-09-09T02:30:30;6.40;;;5.73;;
13693;SDS011;6919;52.344;14.518;2022-09-09T02:33:04;7.67;;;5.87;;
13693;SDS011;6919;52.344;14.518;2022-09-09T02:35:36;8.07;;;6.13;;
13693;SDS011;6919;52.344;14.518;2022-09-09T02:38:07;6.67;;;6.00;;
13693;SDS011;6919;52.344;14.518;2022-09-09T02:40:43;5.90;;;5.37;;
13693;SDS011;6919;52.344;14.518;2022-09-09T02:43:15;6.13;;;5.53;;
13693;SDS011;6919;52.344;14.518;2022-09-09T02:45:46;9.40;;;5.60;;
13693;SDS011;6919;52.344;14.518;2022-09-09T02:48:26;5.87;;;5.27;;
13693;SDS011;6919;52.344;14.518;2022-09-09T02:51:00;5.87;;;4.93;;
13693;SDS011;6919;52.344;14.518;2022-09-09T02:53:43;6.77;;;5.37;;
13693;SDS011;6919;52.344;14.518;2022-09-09T02:56:38;9.13;;;5.77;;
13693;SDS011;6919;52.344;14.518;2022-09-09T02:59:14;7.77;;;5.80;;
13693;SDS011;6919;52.344;14.518;2022-09-09T03:01:43;5.63;;;4.77;;
13693;SDS011;6919;52.344;14.518;2022-09-09T03:04:11;5.60;;;5.10;;
13693;SDS011;6919;52.344;14.518;2022-09-09T03:06:39;7.13;;;5.63;;
13693;SDS011;6919;52.344;14.518;2022-09-09T03:09:07;7.67;;;4.80;;
13693;SDS011;6919;52.344;14.518;2022-09-09T03:11:36;10.93;;;5.80;;
13693;SDS011;6919;52.344;14.518;2022-09-09T03:14:05;8.10;;;5.63;;
13693;SDS011;6919;52.344;14.518;2022-09-09T03:16:34;7.70;;;5.93;;
13693;SDS011;6919;52.344;14.518;2022-09-09T03:19:03;7.47;;;5.70;;
13693;SDS011;6919;52.344;14.518;2022-09-09T03:21:32;5.63;;;5.03;;
13693;SDS011;6919;52.344;14.518;2022-09-09T03:24:00;10.10;;;4.90;;
13693;SDS011;6919;52.344;14.518;2022-09-09T03:26:29;9.70;;;5.30;;
13693;SDS011;6919;52.344;14.518;2022-09-09T03:28:57;6.67;;;5.03;;
13693;SDS011;6919;52.344;14.518;2022-09-09T03:31:26;6.10;;;5.50;;
13693;SDS011;6919;52.344;14.518;2022-09-09T03:33:57;5.73;;;5.17;;
13693;SDS011;6919;52.344;14.518;2022-09-09T03:36:26;7.30;;;5.47;;
13693;SDS011;6919;52.344;14.518;2022-09-09T03:38:54;6.70;;;5.53;;
13693;SDS011;6919;52.344;14.518;2022-09-09T03:41:23;8.03;;;6.07;;
13693;SDS011;6919;52.344;14.518;2022-09-09T03:43:52;7.70;;;5.93;;
13693;SDS011;6919;52.344;14.518;2022-09-09T03:46:21;11.37;;;6.13;;
13693;SDS011;6919;52.344;14.518;2022-09-09T03:48:52;6.57;;;5.87;;
13693;SDS011;6919;52.344;14.518;2022-09-09T03:51:21;12.67;;;5.60;;
13693;SDS011;6919;52.344;14.518;2022-09-09T03:53:50;7.43;;;6.30;;
13693;SDS011;6919;52.344;14.518;2022-09-09T03:56:24;7.43;;;6.00;;
13693;SDS011;6919;52.344;14.518;2022-09-09T03:58:52;10.60;;;6.47;;
13693;SDS011;6919;52.344;14.518;2022-09-09T04:01:20;6.87;;;6.17;;
13693;SDS011;6919;52.344;14.518;2022-09-09T04:03:48;7.60;;;5.67;;
13693;SDS011;6919;52.344;14.518;2022-09-09T04:06:16;8.90;;;5.97;;
13693;SDS011;6919;52.344;14.518;2022-09-09T04:08:47;9.17;;;5.40;;
13693;SDS011;6919;52.344;14.518;2022-09-09T04:11:15;5.97;;;5.33;;
13693;SDS011;6919;52.344;14.518;2022-09-09T04:13:44;6.17;;;5.27;;
13693;SDS011;6919;52.344;14.518;2022-09-09T04:16:12;7.27;;;5.10;;
13693;SDS011;6919;52.344;14.518;2022-09-09T04:18:41;7.07;;;4.77;;
13693;SDS011;6919;52.344;14.518;2022-09-09T04:21:09;8.13;;;5.13;;
13693;SDS011;6919;52.344;14.518;2022-09-09T04:23:38;5.00;;;4.47;;
13693;SDS011;6919;52.344;14.518;2022-09-09T04:26:08;5.20;;;4.70;;
13693;SDS011;6919;52.344;14.518;2022-09-09T04:28:36;5.03;;;4.53;;
13693;SDS011;6919;52.344;14.518;2022-09-09T04:31:05;7.53;;;4.47;;
13693;SDS011;6919;52.344;14.518;2022-09-09T04:33:35;10.33;;;4.47;;
13693;SDS011;6919;52.344;14.518;2022-09-09T04:36:06;6.23;;;4.50;;
13693;SDS011;6919;52.344;14.518;2022-09-09T04:38:35;5.43;;;4.37;;
13693;SDS011;6919;52.344;14.518;2022-09-09T04:41:04;5.17;;;4.30;;
13693;SDS011;6919;52.344;14.518;2022-09-09T04:43:34;5.87;;;4.47;;
13693;SDS011;6919;52.344;14.518;2022-09-09T04:46:03;4.40;;;4.00;;
13693;SDS011;6919;52.344;14.518;2022-09-09T04:48:32;6.37;;;4.33;;
13693;SDS011;6919;52.344;14.518;2022-09-09T04:51:02;7.97;;;4.50;;
13693;SDS011;6919;52.344;14.518;2022-09-09T04:53:32;5.20;;;4.27;;
13693;SDS011;6919;52.344;14.518;2022-09-09T04:56:01;7.47;;;4.23;;
13693;SDS011;6919;52.344;14.518;2022-09-09T04:58:31;4.37;;;3.97;;
13693;SDS011;6919;52.344;14.518;2022-09-09T05:01:05;6.30;;;3.80;;
13693;SDS011;6919;52.344;14.518;2022-09-09T05:03:34;5.53;;;3.77;;
13693;SDS011;6919;52.344;14.518;2022-09-09T05:06:04;4.50;;;3.73;;
13693;SDS011;6919;52.344;14.518;2022-09-09T05:08:34;4.13;;;3.73;;
13693;SDS011;6919;52.344;14.518;2022-09-09T05:11:04;6.27;;;4.13;;
13693;SDS011;6919;52.344;14.518;2022-09-09T05:13:41;4.73;;;3.37;;
13693;SDS011;6919;52.344;14.518;2022-09-09T05:16:11;4.77;;;3.80;;
13693;SDS011;6919;52.344;14.518;2022-09-09T05:18:40;5.33;;;3.30;;
13693;SDS011;6919;52.344;14.518;2022-09-09T05:21:10;7.50;;;3.53;;
13693;SDS011;6919;52.344;14.518;2022-09-09T05:23:39;5.13;;;3.33;;
13693;SDS011;6919;52.344;14.518;2022-09-09T05:26:09;5.27;;;3.23;;
13693;SDS011;6919;52.344;14.518;2022-09-09T05:28:43;6.23;;;3.47;;
13693;SDS011;6919;52.344;14.518;2022-09-09T05:31:14;3.97;;;3.47;;
13693;SDS011;6919;52.344;14.518;2022-09-09T05:33:45;6.00;;;3.53;;
13693;SDS011;6919;52.344;14.518;2022-09-09T05:36:16;6.27;;;3.40;;
13693;SDS011;6919;52.344;14.518;2022-09-09T05:38:46;5.40;;;3.40;;
13693;SDS011;6919;52.344;14.518;2022-09-09T05:41:15;8.67;;;3.80;;
13693;SDS011;6919;52.344;14.518;2022-09-09T05:43:44;7.67;;;3.77;;
13693;SDS011;6919;52.344;14.518;2022-09-09T05:46:16;5.13;;;3.30;;
13693;SDS011;6919;52.344;14.518;2022-09-09T05:48:48;6.80;;;2.43;;
13693;SDS011;6919;52.344;14.518;2022-09-09T05:51:18;4.57;;;2.97;;
13693;SDS011;6919;52.344;14.518;2022-09-09T05:53:48;6.30;;;3.17;;
13693;SDS011;6919;52.344;14.518;2022-09-09T05:56:18;5.80;;;2.50;;
13693;SDS011;6919;52.344;14.518;2022-09-09T05:58:50;6.53;;;2.77;;
13693;SDS011;6919;52.344;14.518;2022-09-09T06:01:22;4.13;;;2.90;;
13693;SDS011;6919;52.344;14.518;2022-09-09T06:03:53;3.43;;;2.20;;
13693;SDS011;6919;52.344;14.518;2022-09-09T06:06:22;2.87;;;2.20;;
13693;SDS011;6919;52.344;14.518;2022-09-09T06:08:53;7.50;;;2.67;;
13693;SDS011;6919;52.344;14.518;2022-09-09T06:11:25;6.00;;;2.67;;
13693;SDS011;6919;52.344;14.518;2022-09-09T06:13:57;6.83;;;2.50;;
13693;SDS011;6919;52.344;14.518;2022-09-09T06:16:28;6.67;;;2.63;;
13693;SDS011;6919;52.344;14.518;2022-09-09T06:18:59;9.40;;;2.50;;
13693;SDS011;6919;52.344;14.518;2022-09-09T06:21:29;3.47;;;2.27;;
13693;SDS011;6919;52.344;14.518;2022-09-09T06:24:00;4.60;;;2.40;;
13693;SDS011;6919;52.344;14.518;2022-09-09T06:26:30;4.93;;;2.57;;
13693;SDS011;6919;52.344;14.518;2022-09-09T06:29:00;3.93;;;2.30;;
13693;SDS011;6919;52.344;14.518;2022-09-09T06:31:31;2.43;;;1.70;;
13693;SDS011;6919;52.344;14.518;2022-09-09T06:34:04;5.17;;;2.40;;
13693;SDS011;6919;52.344;14.518;2022-09-09T06:36:34;4.50;;;2.20;;
13693;SDS011;6919;52.344;14.518;2022-09-09T06:39:05;3.00;;;2.10;;
13693;SDS011;6919;52.344;14.518;2022-09-09T06:41:40;3.97;;;2.37;;
13693;SDS011;6919;52.344;14.518;2022-09-09T06:44:08;4.97;;;2.30;;
13693;SDS011;6919;52.344;14.518;2022-09-09T06:46:39;5.27;;;2.63;;
13693;SDS011;6919;52.344;14.518;2022-09-09T06:49:07;5.30;;;2.43;;
13693;SDS011;6919;52.344;14.518;2022-09-09T06:51:36;4.40;;;2.57;;
13693;SDS011;6919;52.344;14.518;2022-09-09T06:54:33;2.97;;;2.00;;
13693;SDS011;6919;52.344;14.518;2022-09-09T06:57:03;5.70;;;2.13;;
13693;SDS011;6919;52.344;14.518;2022-09-09T06:59:54;7.03;;;2.00;;
13693;SDS011;6919;52.344;14.518;2022-09-09T07:02:48;5.60;;;2.17;;
13693;SDS011;6919;52.344;14.518;2022-09-09T07:05:38;6.43;;;2.13;;
13693;SDS011;6919;52.344;14.518;2022-09-09T07:08:06;2.57;;;2.17;;
13693;SDS011;6919;52.344;14.518;2022-09-09T07:10:34;5.17;;;2.20;;
13693;SDS011;6919;52.344;14.518;2022-09-09T07:13:02;2.83;;;1.90;;
13693;SDS011;6919;52.344;14.518;2022-09-09T07:15:30;3.50;;;2.03;;
13693;SDS011;6919;52.344;14.518;2022-09-09T07:18:02;3.73;;;1.90;;
13693;SDS011;6919;52.344;14.518;2022-09-09T07:20:30;2.53;;;2.07;;
13693;SDS011;6919;52.344;14.518;2022-09-09T07:22:58;6.93;;;2.33;;
13693;SDS011;6919;52.344;14.518;2022-09-09T07:25:26;4.73;;;2.30;;
13693;SDS011;6919;52.344;14.518;2022-09-09T07:27:55;5.57;;;1.83;;
13693;SDS011;6919;52.344;14.518;2022-09-09T07:30:24;6.73;;;2.23;;
13693;SDS011;6919;52.344;14.518;2022-09-09T07:32:53;5.87;;;2.00;;
13693;SDS011;6919;52.344;14.518;2022-09-09T07:35:24;5.47;;;1.93;;
13693;SDS011;6919;52.344;14.518;2022-09-09T07:37:53;6.37;;;1.83;;
13693;SDS011;6919;52.344;14.518;2022-09-09T07:40:21;4.57;;;1.90;;
13693;SDS011;6919;52.344;14.518;2022-09-09T07:42:49;6.20;;;1.90;;
13693;SDS011;6919;52.344;14.518;2022-09-09T07:45:17;2.47;;;1.70;;
13693;SDS011;6919;52.344;14.518;2022-09-09T07:47:45;5.60;;;1.97;;
13693;SDS011;6919;52.344;14.518;2022-09-09T07:50:14;2.13;;;1.60;;
13693;SDS011;6919;52.344;14.518;2022-09-09T07:52:43;3.67;;;1.80;;
13693;SDS011;6919;52.344;14.518;2022-09-09T07:55:12;2.67;;;1.60;;
13693;SDS011;6919;52.344;14.518;2022-09-09T07:57:41;3.73;;;1.80;;
13693;SDS011;6919;52.344;14.518;2022-09-09T08:00:11;3.27;;;1.50;;
13693;SDS011;6919;52.344;14.518;2022-09-09T08:02:41;7.97;;;1.60;;
13693;SDS011;6919;52.344;14.518;2022-09-09T08:05:10;4.87;;;1.57;;
13693;SDS011;6919;52.344;14.518;2022-09-09T08:07:38;3.70;;;1.50;;
13693;SDS011;6919;52.344;14.518;2022-09-09T08:10:08;2.43;;;1.50;;
13693;SDS011;6919;52.344;14.518;2022-09-09T08:12:36;5.30;;;1.63;;
13693;SDS011;6919;52.344;14.518;2022-09-09T08:15:12;2.27;;;1.50;;
13693;SDS011;6919;52.344;14.518;2022-09-09T08:17:41;5.83;;;1.80;;
13693;SDS011;6919;52.344;14.518;2022-09-09T08:20:09;4.67;;;2.10;;
13693;SDS011;6919;52.344;14.518;2022-09-09T08:22:38;3.80;;;1.50;;
13693;SDS011;6919;52.344;14.518;2022-09-09T08:25:08;3.80;;;1.73;;
13693;SDS011;6919;52.344;14.518;2022-09-09T08:27:36;3.03;;;1.53;;
13693;SDS011;6919;52.344;14.518;2022-09-09T08:30:04;5.40;;;1.87;;
13693;SDS011;6919;52.344;14.518;2022-09-09T08:32:34;3.10;;;1.40;;
13693;SDS011;6919;52.344;14.518;2022-09-09T08:35:04;5.17;;;1.70;;
13693;SDS011;6919;52.344;14.518;2022-09-09T08:37:34;2.70;;;1.60;;
13693;SDS011;6919;52.344;14.518;2022-09-09T08:40:02;2.97;;;1.47;;
13693;SDS011;6919;52.344;14.518;2022-09-09T08:42:39;8.60;;;1.83;;
13693;SDS011;6919;52.344;14.518;2022-09-09T08:45:28;4.00;;;1.30;;
13693;SDS011;6919;52.344;14.518;2022-09-09T08:48:10;2.63;;;1.33;;
13693;SDS011;6919;52.344;14.518;2022-09-09T08:50:51;4.50;;;1.80;;
13693;SDS011;6919;52.344;14.518;2022-09-09T08:53:28;4.77;;;1.67;;
13693;SDS011;6919;52.344;14.518;2022-09-09T08:56:08;5.00;;;1.60;;
13693;SDS011;6919;52.344;14.518;2022-09-09T08:58:43;8.43;;;1.80;;
13693;SDS011;6919;52.344;14.518;2022-09-09T09:01:23;2.27;;;1.33;;
13693;SDS011;6919;52.344;14.518;2022-09-09T09:04:13;4.73;;;1.70;;
13693;SDS011;6919;52.344;14.518;2022-09-09T09:07:03;5.37;;;1.50;;
13693;SDS011;6919;52.344;14.518;2022-09-09T09:09:49;3.77;;;1.77;;
13693;SDS011;6919;52.344;14.518;2022-09-09T09:12:40;1.90;;;1.33;;
13693;SDS011;6919;52.344;14.518;2022-09-09T09:15:16;5.23;;;1.60;;
13693;SDS011;6919;52.344;14.518;2022-09-09T09:17:53;5.67;;;1.97;;
13693;SDS011;6919;52.344;14.518;2022-09-09T09:20:23;6.77;;;1.80;;
13693;SDS011;6919;52.344;14.518;2022-09-09T09:23:04;4.13;;;1.70;;
13693;SDS011;6919;52.344;14.518;2022-09-09T09:25:37;2.80;;;1.50;;
13693;SDS011;6919;52.344;14.518;2022-09-09T09:28:11;2.23;;;1.37;;
13693;SDS011;6919;52.344;14.518;2022-09-09T09:30:46;4.77;;;1.43;;
13693;SDS011;6919;52.344;14.518;2022-09-09T09:33:21;3.33;;;1.60;;
13693;SDS011;6919;52.344;14.518;2022-09-09T09:35:55;2.90;;;1.47;;
13693;SDS011;6919;52.344;14.518;2022-09-09T09:38:26;1.90;;;1.10;;
13693;SDS011;6919;52.344;14.518;2022-09-09T09:41:15;6.83;;;1.83;;
13693;SDS011;6919;52.344;14.518;2022-09-09T09:43:52;3.17;;;1.50;;
13693;SDS011;6919;52.344;14.518;2022-09-09T09:46:23;3.90;;;1.60;;
13693;SDS011;6919;52.344;14.518;2022-09-09T09:48:56;4.10;;;1.63;;
13693;SDS011;6919;52.344;14.518;2022-09-09T09:51:26;4.83;;;1.40;;
13693;SDS011;6919;52.344;14.518;2022-09-09T09:54:03;2.73;;;1.47;;
13693;SDS011;6919;52.344;14.518;2022-09-09T09:56:49;3.93;;;1.63;;
13693;SDS011;6919;52.344;14.518;2022-09-09T09:59:23;1.90;;;1.40;;
13693;SDS011;6919;52.344;14.518;2022-09-09T10:02:13;2.57;;;1.50;;
13693;SDS011;6919;52.344;14.518;2022-09-09T10:04:59;2.67;;;1.40;;
13693;SDS011;6919;52.344;14.518;2022-09-09T10:07:30;3.77;;;1.40;;
13693;SDS011;6919;52.344;14.518;2022-09-09T10:09:59;5.33;;;1.40;;
13693;SDS011;6919;52.344;14.518;2022-09-09T10:12:34;4.13;;;1.60;;
13693;SDS011;6919;52.344;14.518;2022-09-09T10:15:22;5.17;;;1.40;;
13693;SDS011;6919;52.344;14.518;2022-09-09T10:18:12;3.53;;;1.53;;
13693;SDS011;6919;52.344;14.518;2022-09-09T10:20:58;2.90;;;1.33;;
13693;SDS011;6919;52.344;14.518;2022-09-09T10:23:45;3.93;;;1.50;;
13693;SDS011;6919;52.344;14.518;2022-09-09T10:26:39;2.80;;;1.20;;
13693;SDS011;6919;52.344;14.518;2022-09-09T10:29:26;4.37;;;1.70;;
13693;SDS011;6919;52.344;14.518;2022-09-09T10:32:29;2.17;;;1.20;;
13693;SDS011;6919;52.344;14.518;2022-09-09T10:35:10;5.73;;;1.83;;
13693;SDS011;6919;52.344;14.518;2022-09-09T10:38:01;5.70;;;1.40;;
13693;SDS011;6919;52.344;14.518;2022-09-09T10:40:49;3.87;;;1.20;;
13693;SDS011;6919;52.344;14.518;2022-09-09T10:43:46;3.47;;;1.40;;
13693;SDS011;6919;52.344;14.518;2022-09-09T10:47:17;4.50;;;1.60;;
13693;SDS011;6919;52.344;14.518;2022-09-09T10:50:18;4.53;;;1.57;;
13693;SDS011;6919;52.344;14.518;2022-09-09T10:53:35;7.13;;;1.40;;
13693;SDS011;6919;52.344;14.518;2022-09-09T10:56:15;3.57;;;1.20;;
13693;SDS011;6919;52.344;14.518;2022-09-09T10:58:47;2.90;;;1.23;;
13693;SDS011;6919;52.344;14.518;2022-09-09T11:01:22;2.73;;;1.13;;
13693;SDS011;6919;52.344;14.518;2022-09-09T11:03:56;3.50;;;1.30;;
13693;SDS011;6919;52.344;14.518;2022-09-09T11:06:34;5.37;;;1.20;;
13693;SDS011;6919;52.344;14.518;2022-09-09T11:09:10;4.27;;;1.23;;
13693;SDS011;6919;52.344;14.518;2022-09-09T11:11:46;3.10;;;1.23;;
13693;SDS011;6919;52.344;14.518;2022-09-09T11:14:22;3.00;;;1.17;;
13693;SDS011;6919;52.344;14.518;2022-09-09T11:17:04;3.53;;;1.40;;
13693;SDS011;6919;52.344;14.518;2022-09-09T11:19:38;6.33;;;1.50;;
13693;SDS011;6919;52.344;14.518;2022-09-09T11:22:14;6.40;;;1.40;;
13693;SDS011;6919;52.344;14.518;2022-09-09T11:24:50;3.10;;;0.97;;
13693;SDS011;6919;52.344;14.518;2022-09-09T11:27:27;4.77;;;1.30;;
13693;SDS011;6919;52.344;14.518;2022-09-09T11:30:17;3.13;;;0.97;;
13693;SDS011;6919;52.344;14.518;2022-09-09T11:36:15;6.80;;;1.33;;
13693;SDS011;6919;52.344;14.518;2022-09-09T11:39:34;2.77;;;1.20;;
13693;SDS011;6919;52.344;14.518;2022-09-09T11:42:35;2.13;;;1.17;;
13693;SDS011;6919;52.344;14.518;2022-09-09T11:45:19;5.23;;;1.50;;
13693;SDS011;6919;52.344;14.518;2022-09-09T11:47:52;1.87;;;1.23;;
13693;SDS011;6919;52.344;14.518;2022-09-09T11:50:30;5.07;;;1.47;;
13693;SDS011;6919;52.344;14.518;2022-09-09T11:53:04;4.00;;;1.07;;
13693;SDS011;6919;52.344;14.518;2022-09-09T11:58:59;2.93;;;1.30;;
13693;SDS011;6919;52.344;14.518;2022-09-09T12:01:33;3.77;;;1.30;;
13693;SDS011;6919;52.344;14.518;2022-09-09T12:04:14;3.13;;;1.37;;
13693;SDS011;6919;52.344;14.518;2022-09-09T12:06:57;3.40;;;1.40;;
13693;SDS011;6919;52.344;14.518;2022-09-09T12:09:31;2.27;;;1.03;;
13693;SDS011;6919;52.344;14.518;2022-09-09T12:12:22;2.07;;;1.10;;
13693;SDS011;6919;52.344;14.518;2022-09-09T12:14:56;2.77;;;1.13;;
13693;SDS011;6919;52.344;14.518;2022-09-09T12:17:28;3.10;;;1.33;;
13693;SDS011;6919;52.344;14.518;2022-09-09T12:20:06;3.87;;;1.47;;
13693;SDS011;6919;52.344;14.518;2022-09-09T12:22:44;5.83;;;1.67;;
13693;SDS011;6919;52.344;14.518;2022-09-09T12:25:45;4.27;;;1.50;;
13693;SDS011;6919;52.344;14.518;2022-09-09T12:28:27;4.67;;;1.23;;
13693;SDS011;6919;52.344;14.518;2022-09-09T12:31:12;2.27;;;1.00;;
13693;SDS011;6919;52.344;14.518;2022-09-09T12:33:48;6.53;;;1.40;;
13693;SDS011;6919;52.344;14.518;2022-09-09T12:36:18;11.67;;;1.50;;
13693;SDS011;6919;52.344;14.518;2022-09-09T12:38:51;2.40;;;1.17;;
13693;SDS011;6919;52.344;14.518;2022-09-09T12:41:21;3.10;;;1.13;;
13693;SDS011;6919;52.344;14.518;2022-09-09T12:44:03;3.80;;;1.20;;
13693;SDS011;6919;52.344;14.518;2022-09-09T12:46:35;3.13;;;1.50;;
13693;SDS011;6919;52.344;14.518;2022-09-09T12:49:20;4.33;;;1.53;;
13693;SDS011;6919;52.344;14.518;2022-09-09T12:52:01;4.00;;;1.30;;
13693;SDS011;6919;52.344;14.518;2022-09-09T12:54:33;5.20;;;1.50;;
13693;SDS011;6919;52.344;14.518;2022-09-09T12:57:04;4.30;;;1.20;;
13693;SDS011;6919;52.344;14.518;2022-09-09T12:59:40;2.95;;;1.00;;
13693;SDS011;6919;52.344;14.518;2022-09-09T13:02:18;3.20;;;1.20;;
13693;SDS011;6919;52.344;14.518;2022-09-09T13:04:49;3.33;;;1.15;;
13693;SDS011;6919;52.344;14.518;2022-09-09T13:07:20;3.03;;;1.20;;
13693;SDS011;6919;52.344;14.518;2022-09-09T13:09:48;2.75;;;1.10;;
13693;SDS011;6919;52.344;14.518;2022-09-09T13:12:18;4.25;;;1.15;;
13693;SDS011;6919;52.344;14.518;2022-09-09T13:14:51;2.17;;;1.08;;
13693;SDS011;6919;52.344;14.518;2022-09-09T13:17:24;2.47;;;1.10;;
13693;SDS011;6919;52.344;14.518;2022-09-09T13:19:55;2.83;;;1.02;;
13693;SDS011;6919;52.344;14.518;2022-09-09T13:22:26;2.40;;;1.00;;
13693;SDS011;6919;52.344;14.518;2022-09-09T13:25:03;5.40;;;1.30;;
13693;SDS011;6919;52.344;14.518;2022-09-09T13:27:51;2.85;;;1.30;;
13693;SDS011;6919;52.344;14.518;2022-09-09T13:30:28;3.47;;;1.40;;
13693;SDS011;6919;52.344;14.518;2022-09-09T13:33:03;2.83;;;1.02;;
13693;SDS011;6919;52.344;14.518;2022-09-09T13:35:48;3.78;;;1.15;;
13693;SDS011;6919;52.344;14.518;2022-09-09T13:38:21;3.28;;;1.48;;
13693;SDS011;6919;52.344;14.518;2022-09-09T13:40:56;3.25;;;1.45;;
13693;SDS011;6919;52.344;14.518;2022-09-09T13:43:31;1.80;;;1.05;;
13693;SDS011;6919;52.344;14.518;2022-09-09T13:46:05;3.75;;;1.40;;
13693;SDS011;6919;52.344;14.518;2022-09-09T13:49:00;2.10;;;1.08;;
13693;SDS011;6919;52.344;14.518;2022-09-09T13:51:32;4.20;;;1.20;;
13693;SDS011;6919;52.344;14.518;2022-09-09T13:54:04;2.13;;;1.38;;
13693;SDS011;6919;52.344;14.518;2022-09-09T13:56:36;2.63;;;1.25;;
13693;SDS011;6919;52.344;14.518;2022-09-09T13:59:09;5.15;;;1.35;;
13693;SDS011;6919;52.344;14.518;2022-09-09T14:01:41;3.10;;;1.27;;
13693;SDS011;6919;52.344;14.518;2022-09-09T14:04:10;3.65;;;1.15;;
13693;SDS011;6919;52.344;14.518;2022-09-09T14:06:39;5.47;;;1.33;;
13693;SDS011;6919;52.344;14.518;2022-09-09T14:09:09;4.93;;;1.23;;
13693;SDS011;6919;52.344;14.518;2022-09-09T14:11:42;3.50;;;1.00;;
13693;SDS011;6919;52.344;14.518;2022-09-09T14:14:11;3.37;;;1.53;;
13693;SDS011;6919;52.344;14.518;2022-09-09T14:16:41;7.10;;;1.40;;
13693;SDS011;6919;52.344;14.518;2022-09-09T14:19:09;5.40;;;1.43;;
13693;SDS011;6919;52.344;14.518;2022-09-09T14:21:38;4.17;;;1.40;;
13693;SDS011;6919;52.344;14.518;2022-09-09T14:24:06;3.90;;;1.40;;
13693;SDS011;6919;52.344;14.518;2022-09-09T14:26:34;3.60;;;1.43;;
13693;SDS011;6919;52.344;14.518;2022-09-09T14:29:02;8.73;;;1.60;;
13693;SDS011;6919;52.344;14.518;2022-09-09T14:31:31;6.73;;;1.40;;
13693;SDS011;6919;52.344;14.518;2022-09-09T14:34:00;4.73;;;1.30;;
13693;SDS011;6919;52.344;14.518;2022-09-09T14:36:28;4.57;;;1.67;;
13693;SDS011;6919;52.344;14.518;2022-09-09T14:38:56;3.67;;;1.40;;
13693;SDS011;6919;52.344;14.518;2022-09-09T14:41:25;2.03;;;1.37;;
13693;SDS011;6919;52.344;14.518;2022-09-09T14:43:53;7.97;;;1.70;;
13693;SDS011;6919;52.344;14.518;2022-09-09T14:46:21;2.03;;;1.07;;
13693;SDS011;6919;52.344;14.518;2022-09-09T14:48:49;5.73;;;1.00;;
13693;SDS011;6919;52.344;14.518;2022-09-09T14:51:24;2.53;;;1.30;;
13693;SDS011;6919;52.344;14.518;2022-09-09T14:53:54;3.43;;;1.37;;
13693;SDS011;6919;52.344;14.518;2022-09-09T14:56:25;2.40;;;1.10;;
13693;SDS011;6919;52.344;14.518;2022-09-09T14:58:56;5.57;;;1.20;;
13693;SDS011;6919;52.344;14.518;2022-09-09T15:01:27;3.77;;;1.50;;
13693;SDS011;6919;52.344;14.518;2022-09-09T15:03:57;2.97;;;1.10;;
13693;SDS011;6919;52.344;14.518;2022-09-09T15:06:30;2.47;;;1.17;;
13693;SDS011;6919;52.344;14.518;2022-09-09T15:09:00;3.17;;;1.10;;
13693;SDS011;6919;52.344;14.518;2022-09-09T15:11:30;3.10;;;1.03;;
13693;SDS011;6919;52.344;14.518;2022-09-09T15:14:04;4.27;;;1.20;;
13693;SDS011;6919;52.344;14.518;2022-09-09T15:16:34;2.83;;;1.30;;
13693;SDS011;6919;52.344;14.518;2022-09-09T15:19:02;4.53;;;1.27;;
13693;SDS011;6919;52.344;14.518;2022-09-09T15:21:33;2.53;;;1.00;;
13693;SDS011;6919;52.344;14.518;2022-09-09T15:24:04;1.47;;;0.93;;
13693;SDS011;6919;52.344;14.518;2022-09-09T15:26:34;4.27;;;1.20;;
13693;SDS011;6919;52.344;14.518;2022-09-09T15:29:05;4.83;;;1.10;;
13693;SDS011;6919;52.344;14.518;2022-09-09T15:31:35;4.90;;;1.47;;
13693;SDS011;6919;52.344;14.518;2022-09-09T15:34:04;2.43;;;1.13;;
13693;SDS011;6919;52.344;14.518;2022-09-09T15:36:36;3.70;;;1.33;;
13693;SDS011;6919;52.344;14.518;2022-09-09T15:39:07;6.03;;;1.50;;
13693;SDS011;6919;52.344;14.518;2022-09-09T15:41:38;4.33;;;2.63;;
13693;SDS011;6919;52.344;14.518;2022-09-09T15:44:07;3.17;;;1.23;;
13693;SDS011;6919;52.344;14.518;2022-09-09T15:46:39;3.23;;;0.97;;
13693;SDS011;6919;52.344;14.518;2022-09-09T15:49:09;4.47;;;1.10;;